Terminal Aerodrome Forecast
Issued by NWS

Home | Current Version | Previous Version | Text Only | Print | Product List | Glossary On
Versions: 1 2 3 4 5 6 7 8 9 10 11 12 13 14 15 16 17
000
FTUS45 KTFX 240849 AAB
TAFHVR
TAF AMD
KHVR 240849Z 2409/2506 26018G31KT P6SM VCSH SCT035 BKN080
      TEMPO 2409/2412 -SHRA BKN035
     FM250500 24010KT P6SM FEW080 FEW250=

USA.gov is the U.S. government's official web portal to all federal, state and local government web resources and services.